Terminal Aerodrome Forecast
Issued by NWS

Home | Current Version | Previous Version | Text Only | Print | Product List | Glossary On
Versions: 1 2 3 4 5 6 7 8 9 10 11 12 13 14 15 16 17 18 19 20 21 22
052
FTUS41 KOKX 301542 AAD
TAFSWF
TAF AMD
KSWF 301542Z 3016/3118 VRB05KT P6SM BKN007 OVC015
      TEMPO 3016/3017 SCT007
     FM301700 VRB05KT P6SM SCT015 OVC040
      TEMPO 3017/3018 BKN015
     FM301800 24007KT P6SM VCSH BKN050
     FM310100 VRB04KT 4SM BR BKN040
     FM311200 30006KT P6SM SCT250
      AMD NOT SKED=

USA.gov is the U.S. government's official web portal to all federal, state and local government web resources and services.